createdAt,value
2023-02-13T00:00:29.141Z,14.17
2023-02-13T00:02:56.984Z,13.90
2023-02-13T00:05:24.876Z,14.27
2023-02-13T00:07:52.738Z,15.10
2023-02-13T00:10:20.745Z,15.07
2023-02-13T00:12:48.612Z,14.63
2023-02-13T00:15:16.499Z,13.43
2023-02-13T00:17:45.752Z,14.53
2023-02-13T00:20:14.041Z,13.97
2023-02-13T00:22:41.990Z,14.43
2023-02-13T00:25:13.889Z,13.10
2023-02-13T00:27:41.792Z,13.30
2023-02-13T00:30:10.546Z,14.00
2023-02-13T00:32:38.403Z,14.97
2023-02-13T00:35:08.139Z,13.60
2023-02-13T00:37:36.029Z,13.90
2023-02-13T00:40:03.861Z,13.70
2023-02-13T00:42:31.713Z,14.60
2023-02-13T00:44:59.694Z,15.80
2023-02-13T00:47:27.606Z,13.23
2023-02-13T00:49:55.524Z,14.50
2023-02-13T00:52:24.833Z,14.23
2023-02-13T00:54:52.691Z,14.27
2023-02-13T00:57:20.513Z,14.70
2023-02-13T00:59:49.696Z,15.10
2023-02-13T01:02:18.415Z,14.13
2023-02-13T01:04:46.334Z,15.17
2023-02-13T01:07:15.822Z,16.23
2023-02-13T01:09:45.965Z,14.47
2023-02-13T01:12:13.857Z,14.40
2023-02-13T01:14:41.743Z,12.67
2023-02-13T01:17:09.606Z,14.83
2023-02-13T01:19:37.483Z,12.97
2023-02-13T01:22:05.384Z,14.93
2023-02-13T01:24:34.138Z,14.17
2023-02-13T01:27:03.359Z,16.17
2023-02-13T01:29:31.256Z,15.67
2023-02-13T01:31:59.177Z,14.63
2023-02-13T01:34:27.083Z,15.93
2023-02-13T01:36:54.970Z,15.90
2023-02-13T01:39:22.916Z,14.57
2023-02-13T01:41:50.983Z,16.20
2023-02-13T01:44:54.734Z,15.97
2023-02-13T01:47:26.825Z,15.20
2023-02-13T01:50:00.766Z,15.23
2023-02-13T01:52:28.683Z,16.33
2023-02-13T01:54:56.539Z,16.63
2023-02-13T01:57:24.840Z,16.67
2023-02-13T01:59:55.301Z,12.27
2023-02-13T02:02:23.277Z,17.17
2023-02-13T02:04:51.218Z,17.03
2023-02-13T02:07:20.318Z,16.73
2023-02-13T02:09:48.200Z,16.57
2023-02-13T02:12:21.232Z,16.07
2023-02-13T02:14:49.105Z,18.10
2023-02-13T02:17:18.397Z,18.80
2023-02-13T02:19:50.128Z,15.83
2023-02-13T02:22:36.230Z,18.57
2023-02-13T02:25:39.690Z,17.30
2023-02-13T02:28:17.993Z,17.80
2023-02-13T02:31:12.687Z,16.80
2023-02-13T02:33:49.667Z,17.87
2023-02-13T02:36:24.139Z,16.87
2023-02-13T02:39:04.886Z,15.50
2023-02-13T02:41:45.208Z,17.73
2023-02-13T02:44:27.484Z,16.07
2023-02-13T02:47:17.558Z,16.23
2023-02-13T02:50:02.173Z,14.87
2023-02-13T02:52:40.540Z,14.77
2023-02-13T02:55:11.657Z,14.83
2023-02-13T02:57:58.848Z,14.53
2023-02-13T03:00:44.825Z,14.83
2023-02-13T03:03:32.421Z,15.30
2023-02-13T03:06:14.233Z,12.30
2023-02-13T03:09:06.058Z,12.33
2023-02-13T03:11:51.305Z,12.10
2023-02-13T03:14:20.827Z,12.77
2023-02-13T03:17:06.124Z,14.30
2023-02-13T03:20:02.548Z,15.17
2023-02-13T03:22:38.252Z,13.30
2023-02-13T03:25:12.128Z,12.70
2023-02-13T03:28:02.733Z,13.67
2023-02-13T03:30:35.830Z,14.73
2023-02-13T03:33:10.683Z,13.90
2023-02-13T03:35:57.813Z,13.47
2023-02-13T03:38:29.217Z,13.23
2023-02-13T03:41:16.551Z,14.80
2023-02-13T03:43:48.659Z,12.77
2023-02-13T03:46:16.855Z,13.50
2023-02-13T03:49:01.924Z,12.83
2023-02-13T03:51:32.216Z,11.87
2023-02-13T03:54:02.431Z,11.97
2023-02-13T03:56:47.589Z,12.67
2023-02-13T03:59:19.929Z,12.60
2023-02-13T04:01:51.693Z,12.67
2023-02-13T04:04:26.879Z,12.80
2023-02-13T04:06:56.651Z,12.27
2023-02-13T04:09:26.029Z,11.03
2023-02-13T04:11:56.881Z,12.30
2023-02-13T04:14:26.512Z,12.80
2023-02-13T04:16:55.763Z,12.90
2023-02-13T04:19:23.729Z,11.27
2023-02-13T04:21:56.295Z,12.23
2023-02-13T04:24:25.788Z,9.90
2023-02-13T04:26:53.682Z,10.17
2023-02-13T04:29:22.133Z,13.50
2023-02-13T04:31:50.166Z,12.27
2023-02-13T04:34:18.175Z,12.10
2023-02-13T04:36:46.044Z,12.47
2023-02-13T04:39:14.057Z,12.87
2023-02-13T04:41:43.260Z,13.23
2023-02-13T04:44:11.145Z,12.40
2023-02-13T04:46:39.018Z,12.37
2023-02-13T04:49:06.918Z,13.13
2023-02-13T04:51:34.813Z,11.73
2023-02-13T04:54:02.672Z,11.97
2023-02-13T04:56:30.575Z,11.27
2023-02-13T04:58:59.841Z,10.43
2023-02-13T05:01:27.833Z,11.77
2023-02-13T05:03:55.771Z,11.70
2023-02-13T05:06:23.647Z,12.77
2023-02-13T05:08:51.498Z,11.60
2023-02-13T05:11:19.354Z,11.50
2023-02-13T05:13:50.254Z,11.87
2023-02-13T05:16:19.523Z,12.70
2023-02-13T05:18:47.383Z,13.00
2023-02-13T05:21:32.700Z,12.17
2023-02-13T05:24:01.306Z,11.67
2023-02-13T05:26:29.210Z,10.93
2023-02-13T05:29:14.729Z,12.97
2023-02-13T05:31:44.106Z,12.07
2023-02-13T05:34:12.024Z,12.27
2023-02-13T05:36:40.010Z,11.10
2023-02-13T05:39:10.963Z,12.53
2023-02-13T05:41:38.866Z,11.93
2023-02-13T05:44:06.788Z,12.00
2023-02-13T05:46:34.765Z,12.17
2023-02-13T05:49:04.932Z,11.53
2023-02-13T05:51:32.867Z,11.07
2023-02-13T05:54:00.762Z,11.60
2023-02-13T05:56:28.706Z,11.07
2023-02-13T05:58:57.152Z,11.97
2023-02-13T06:01:25.180Z,12.17
2023-02-13T06:03:53.144Z,12.40
2023-02-13T06:06:22.818Z,11.27
2023-02-13T06:08:50.739Z,11.53
2023-02-13T06:11:19.857Z,12.20
2023-02-13T06:13:47.838Z,11.40
2023-02-13T06:16:15.762Z,10.67
2023-02-13T06:18:43.649Z,10.60
2023-02-13T06:21:11.725Z,10.63
2023-02-13T06:23:41.046Z,11.57
2023-02-13T06:26:09.500Z,10.37
2023-02-13T06:28:37.501Z,10.90
2023-02-13T06:31:05.760Z,11.20
2023-02-13T06:33:33.681Z,11.50
2023-02-13T06:36:01.593Z,11.60
2023-02-13T06:38:29.474Z,10.97
2023-02-13T06:41:00.928Z,11.17
2023-02-13T06:43:28.972Z,10.90
2023-02-13T06:45:56.876Z,10.73
2023-02-13T06:48:24.745Z,12.23
2023-02-13T06:50:52.736Z,11.43
2023-02-13T06:53:24.607Z,12.30
2023-02-13T06:55:53.695Z,11.10
2023-02-13T06:58:23.163Z,12.00
2023-02-13T07:00:51.188Z,12.73
2023-02-13T07:03:19.080Z,12.47
2023-02-13T07:05:46.982Z,12.03
2023-02-13T07:08:14.896Z,12.47
2023-02-13T07:10:42.881Z,11.30
2023-02-13T07:13:11.070Z,11.17
2023-02-13T07:15:40.428Z,11.53
2023-02-13T07:18:08.356Z,12.43
2023-02-13T07:20:36.244Z,11.27
2023-02-13T07:23:05.060Z,11.77
2023-02-13T07:25:33.102Z,11.70
2023-02-13T07:28:02.764Z,11.67
2023-02-13T07:30:31.378Z,12.00
2023-02-13T07:33:01.969Z,11.10
2023-02-13T07:35:29.907Z,11.57
2023-02-13T07:37:57.852Z,10.40
2023-02-13T07:40:25.726Z,11.03
2023-02-13T07:42:53.594Z,11.03
2023-02-13T07:45:21.514Z,12.43
2023-02-13T07:47:49.448Z,11.67
2023-02-13T07:50:19.167Z,11.73
2023-02-13T07:52:56.502Z,11.80
2023-02-13T07:55:24.429Z,11.43
2023-02-13T07:57:52.296Z,11.57
2023-02-13T08:00:21.261Z,15.23
2023-02-13T08:02:49.408Z,12.47
2023-02-13T08:05:18.755Z,13.33
2023-02-13T08:07:46.653Z,12.47
2023-02-13T08:10:32.804Z,11.43
2023-02-13T08:13:00.802Z,11.93
2023-02-13T08:15:28.752Z,11.90
2023-02-13T08:17:56.624Z,11.90
2023-02-13T08:20:26.152Z,12.53
2023-02-13T08:22:54.046Z,12.50
2023-02-13T08:25:21.938Z,12.77
2023-02-13T08:27:50.154Z,13.67
2023-02-13T08:30:20.149Z,13.63
2023-02-13T08:32:54.237Z,13.87
2023-02-13T08:35:22.941Z,12.80
2023-02-13T08:37:52.272Z,13.57
2023-02-13T08:40:20.357Z,14.37
2023-02-13T08:42:49.502Z,14.03
2023-02-13T08:45:17.584Z,14.57
2023-02-13T08:47:45.510Z,14.07
2023-02-13T08:50:13.556Z,14.97
2023-02-13T08:52:41.445Z,14.40
2023-02-13T08:55:10.923Z,13.47
2023-02-13T08:57:38.884Z,14.10
2023-02-13T09:00:08.262Z,14.13
2023-02-13T09:02:36.200Z,13.63
2023-02-13T09:05:04.369Z,14.60
2023-02-13T09:07:32.372Z,13.87
2023-02-13T09:10:00.275Z,14.17
2023-02-13T09:12:29.753Z,13.57
2023-02-13T09:14:57.671Z,13.57
2023-02-13T09:17:25.745Z,12.97
2023-02-13T09:19:53.716Z,13.00
2023-02-13T09:22:21.678Z,12.97
2023-02-13T09:24:49.883Z,13.80
2023-02-13T09:27:17.906Z,13.50
2023-02-13T09:29:47.387Z,13.17
2023-02-13T09:32:16.081Z,13.17
2023-02-13T09:34:44.040Z,13.40
2023-02-13T09:37:11.936Z,12.67
2023-02-13T09:39:39.978Z,13.60
2023-02-13T09:42:09.070Z,12.17
2023-02-13T09:44:39.515Z,11.93
2023-02-13T09:47:13.189Z,11.77
2023-02-13T09:49:42.486Z,11.60
2023-02-13T09:52:10.378Z,11.20
2023-02-13T09:54:38.280Z,12.50
2023-02-13T09:57:09.317Z,10.93
2023-02-13T09:59:45.032Z,11.53
2023-02-13T10:02:24.094Z,11.37
2023-02-13T10:04:58.160Z,10.57
2023-02-13T10:07:28.390Z,10.00
2023-02-13T10:09:59.014Z,11.40
2023-02-13T10:12:32.007Z,11.57
2023-02-13T10:15:05.757Z,10.93
2023-02-13T10:17:36.576Z,11.30
2023-02-13T10:20:08.446Z,11.40
2023-02-13T10:22:38.761Z,10.97
2023-02-13T10:25:09.427Z,10.83
2023-02-13T10:27:39.718Z,11.40
2023-02-13T10:30:12.886Z,11.00
2023-02-13T10:32:49.008Z,11.47
2023-02-13T10:35:23.495Z,10.83
2023-02-13T10:37:53.343Z,11.50
2023-02-13T10:40:21.592Z,12.10
2023-02-13T10:42:54.015Z,12.40
2023-02-13T10:45:46.948Z,11.67
2023-02-13T10:48:32.644Z,11.10
2023-02-13T10:51:02.899Z,10.10
2023-02-13T10:53:36.959Z,10.37
2023-02-13T10:56:19.716Z,11.37
2023-02-13T10:58:55.394Z,10.77
2023-02-13T11:01:25.612Z,10.53
2023-02-13T11:04:07.037Z,11.60
2023-02-13T11:06:36.046Z,11.87
2023-02-13T11:09:04.109Z,10.33
2023-02-13T11:11:33.165Z,10.73
2023-02-13T11:14:10.026Z,10.47
2023-02-13T11:16:50.709Z,10.87
2023-02-13T11:19:21.496Z,10.67
2023-02-13T11:21:56.864Z,10.57
2023-02-13T11:24:25.585Z,11.37
2023-02-13T11:26:55.166Z,10.33
2023-02-13T11:29:25.536Z,10.07
2023-02-13T11:32:07.427Z,9.90
2023-02-13T11:34:36.819Z,10.33
2023-02-13T11:37:25.441Z,10.67
2023-02-13T11:39:54.409Z,9.77
2023-02-13T11:42:26.304Z,9.83
2023-02-13T11:44:55.800Z,9.93
2023-02-13T11:47:35.685Z,10.43
2023-02-13T11:50:05.825Z,10.40
2023-02-13T11:52:36.808Z,10.80
2023-02-13T11:55:06.045Z,10.27
2023-02-13T11:57:34.625Z,10.70
2023-02-13T12:00:04.001Z,10.83
2023-02-13T12:02:32.646Z,11.53
2023-02-13T12:07:56.519Z,10.63
2023-02-13T12:10:25.302Z,10.37
2023-02-13T12:12:55.704Z,10.20
2023-02-13T12:15:25.437Z,11.07
2023-02-13T12:18:00.357Z,10.33
2023-02-13T12:20:28.652Z,11.00
2023-02-13T12:23:02.505Z,12.30
2023-02-13T12:25:40.657Z,10.73
2023-02-13T12:28:14.910Z,9.60
2023-02-13T12:31:11.852Z,10.30
2023-02-13T12:33:55.204Z,9.93
2023-02-13T12:36:23.330Z,10.47
2023-02-13T12:39:01.734Z,10.87
2023-02-13T12:41:31.693Z,10.87
2023-02-13T12:44:29.261Z,10.67
2023-02-13T12:47:03.161Z,10.97
2023-02-13T12:49:49.862Z,10.33
2023-02-13T12:52:31.861Z,10.87
2023-02-13T12:55:12.609Z,10.90
2023-02-13T12:57:46.732Z,10.67
2023-02-13T13:00:26.566Z,10.60
2023-02-13T13:03:27.310Z,10.30
2023-02-13T13:06:11.749Z,11.37
2023-02-13T13:09:01.244Z,11.25
2023-02-13T13:11:44.279Z,11.23
2023-02-13T13:14:15.692Z,11.23
2023-02-13T13:16:48.422Z,11.40
2023-02-13T13:19:25.458Z,11.32
2023-02-13T13:21:56.169Z,11.23
2023-02-13T13:24:30.320Z,11.43
2023-02-13T13:26:59.817Z,10.88
2023-02-13T13:29:31.668Z,11.07
2023-02-13T13:32:02.341Z,11.88
2023-02-13T13:34:31.791Z,11.55
2023-02-13T13:37:02.380Z,11.82
2023-02-13T13:39:38.516Z,11.95
2023-02-13T13:42:11.524Z,12.55
2023-02-13T13:44:52.739Z,12.07
2023-02-13T13:47:27.951Z,12.02
2023-02-13T13:49:56.306Z,10.98
2023-02-13T13:52:26.713Z,12.10
2023-02-13T13:55:02.575Z,11.73
2023-02-13T13:58:01.806Z,10.88
2023-02-13T14:00:30.876Z,12.15
2023-02-13T14:03:32.161Z,12.13
2023-02-13T14:06:08.093Z,11.75
2023-02-13T14:08:58.592Z,11.77
2023-02-13T14:11:28.731Z,12.35
2023-02-13T14:13:58.397Z,12.30
2023-02-13T14:16:39.767Z,12.05
2023-02-13T14:19:07.987Z,11.48
2023-02-13T14:21:35.932Z,11.68
2023-02-13T14:24:06.388Z,12.30
2023-02-13T14:26:38.382Z,13.10
2023-02-13T14:29:23.748Z,12.18
2023-02-13T14:32:05.799Z,12.13
2023-02-13T14:34:34.621Z,12.30
2023-02-13T14:37:18.909Z,13.27
2023-02-13T14:39:47.056Z,12.95
2023-02-13T14:42:24.579Z,12.77
2023-02-13T14:44:54.514Z,12.18
2023-02-13T14:47:23.976Z,13.20
2023-02-13T14:49:51.985Z,12.40
2023-02-13T14:52:22.067Z,12.75
2023-02-13T14:54:50.776Z,12.57
2023-02-13T14:57:19.480Z,12.63
2023-02-13T14:59:48.366Z,13.77
2023-02-13T15:02:23.653Z,14.25
2023-02-13T15:04:55.021Z,13.15
2023-02-13T15:07:24.733Z,14.15
2023-02-13T15:09:54.419Z,13.32
2023-02-13T15:12:26.991Z,13.40
2023-02-13T15:14:54.942Z,13.88
2023-02-13T15:17:27.128Z,13.80
2023-02-13T15:19:55.657Z,13.40
2023-02-13T15:22:28.770Z,14.27
2023-02-13T15:24:56.679Z,14.53
2023-02-13T15:27:27.054Z,14.50
2023-02-13T15:29:59.489Z,14.07
2023-02-13T15:32:33.940Z,14.40
2023-02-13T15:35:01.991Z,13.73
2023-02-13T15:37:31.147Z,15.50
2023-02-13T15:40:24.029Z,14.43
2023-02-13T15:42:52.158Z,15.27
2023-02-13T15:45:20.171Z,15.57
2023-02-13T15:47:49.488Z,14.50
2023-02-13T15:50:25.289Z,13.90
2023-02-13T15:52:55.930Z,14.17
2023-02-13T15:55:27.084Z,16.13
2023-02-13T15:57:55.914Z,14.77
2023-02-13T16:00:26.157Z,13.97
2023-02-13T16:03:00.712Z,15.40
2023-02-13T16:05:39.382Z,14.03
2023-02-13T16:08:35.424Z,14.97
2023-02-13T16:11:25.206Z,14.47
2023-02-13T16:14:01.331Z,14.17
2023-02-13T16:16:29.528Z,14.03
2023-02-13T16:18:58.847Z,14.37
2023-02-13T16:21:27.484Z,12.53
2023-02-13T16:23:58.006Z,14.67
2023-02-13T16:26:25.880Z,16.57
2023-02-13T16:28:55.830Z,14.33
2023-02-13T16:31:27.891Z,15.70
2023-02-13T16:33:56.024Z,15.63
2023-02-13T16:36:31.463Z,15.27
2023-02-13T16:39:02.000Z,15.97
2023-02-13T16:41:30.959Z,14.43
2023-02-13T16:43:58.867Z,15.63
2023-02-13T16:46:29.689Z,14.80
2023-02-13T16:49:24.552Z,15.20
2023-02-13T16:51:56.645Z,15.53
2023-02-13T16:54:28.208Z,15.73
2023-02-13T16:56:57.114Z,15.83
2023-02-13T16:59:29.876Z,15.50
2023-02-13T17:02:28.102Z,15.40
2023-02-13T17:04:56.865Z,16.30
2023-02-13T17:07:27.466Z,15.20
2023-02-13T17:09:57.224Z,14.87
2023-02-13T17:12:25.090Z,17.23
2023-02-13T17:14:53.018Z,15.00
2023-02-13T17:17:22.262Z,16.10
2023-02-13T17:19:50.414Z,16.60
2023-02-13T17:22:35.968Z,16.33
2023-02-13T17:25:05.254Z,16.40
2023-02-13T17:27:33.174Z,17.57
2023-02-13T17:30:01.628Z,15.23
2023-02-13T17:32:30.032Z,16.80
2023-02-13T17:34:57.998Z,17.87
2023-02-13T17:37:26.580Z,17.93
2023-02-13T17:39:55.983Z,16.60
2023-02-13T17:42:25.404Z,18.10
2023-02-13T17:44:53.447Z,17.63
2023-02-13T17:47:21.527Z,18.67
2023-02-13T17:49:49.976Z,18.73
2023-02-13T17:52:19.453Z,18.77
2023-02-13T17:54:47.298Z,19.93
2023-02-13T17:57:17.796Z,18.13
2023-02-13T17:59:46.301Z,21.13
2023-02-13T18:02:15.895Z,17.87
2023-02-13T18:04:43.911Z,20.00
2023-02-13T18:07:12.618Z,20.17
2023-02-13T18:09:41.145Z,19.03
2023-02-13T18:12:10.188Z,19.97
2023-02-13T18:14:39.505Z,21.20
2023-02-13T18:17:07.582Z,21.47
2023-02-13T18:19:35.481Z,20.30
2023-02-13T18:22:03.393Z,20.20
2023-02-13T18:24:31.757Z,20.43
2023-02-13T18:26:59.947Z,22.47
2023-02-13T18:29:27.894Z,22.07
2023-02-13T18:31:57.943Z,21.40
2023-02-13T18:34:26.056Z,23.70
2023-02-13T18:36:53.957Z,21.70
2023-02-13T18:39:21.893Z,21.00
2023-02-13T18:41:49.968Z,20.97
2023-02-13T18:44:28.104Z,21.97
2023-02-13T18:46:58.114Z,20.77
2023-02-13T18:49:25.976Z,22.27
2023-02-13T18:51:53.884Z,17.87
2023-02-13T18:54:22.308Z,20.13
2023-02-13T18:56:50.181Z,19.03
2023-02-13T18:59:19.198Z,19.77
2023-02-13T19:01:47.179Z,19.43
2023-02-13T19:04:16.899Z,21.43
2023-02-13T19:06:45.167Z,17.73
2023-02-13T19:09:13.250Z,18.60
2023-02-13T19:11:41.126Z,22.60
2023-02-13T19:14:09.010Z,21.93
2023-02-13T19:16:37.006Z,19.80
2023-02-13T19:19:06.251Z,20.83
2023-02-13T19:21:36.597Z,23.10
2023-02-13T19:24:04.824Z,21.53
2023-02-13T19:26:32.822Z,20.27
2023-02-13T19:29:00.758Z,19.23
2023-02-13T19:31:32.646Z,22.67
2023-02-13T19:34:01.093Z,21.90
2023-02-13T19:36:30.108Z,20.63
2023-02-13T19:39:00.297Z,22.67
2023-02-13T19:41:29.049Z,21.23
2023-02-13T19:43:56.934Z,22.33
2023-02-13T19:46:25.799Z,20.67
2023-02-13T19:48:54.875Z,23.73
2023-02-13T19:51:30.069Z,21.23
2023-02-13T19:54:00.273Z,21.43
2023-02-13T19:56:28.439Z,22.67
2023-02-13T19:58:56.493Z,20.40
2023-02-13T20:01:25.539Z,21.67
2023-02-13T20:03:53.487Z,22.20
2023-02-13T20:06:22.785Z,20.87
2023-02-13T20:08:51.223Z,21.43
2023-02-13T20:11:21.499Z,23.20
2023-02-13T20:13:52.125Z,19.90
2023-02-13T20:16:20.444Z,19.83
2023-02-13T20:18:48.490Z,20.73
2023-02-13T20:21:17.344Z,21.87
2023-02-13T20:23:48.800Z,20.13
2023-02-13T20:26:17.363Z,20.83
2023-02-13T20:28:47.004Z,20.37
2023-02-13T20:31:15.973Z,19.23
2023-02-13T20:33:48.766Z,19.80
2023-02-13T20:36:18.123Z,22.50
2023-02-13T20:38:46.023Z,20.67
2023-02-13T20:41:15.092Z,22.23
2023-02-13T20:43:43.034Z,22.33
2023-02-13T20:46:13.433Z,19.60
2023-02-13T20:48:41.837Z,21.50
2023-02-13T20:51:11.559Z,19.17
2023-02-13T20:53:39.521Z,22.23
2023-02-13T20:56:10.651Z,22.03
2023-02-13T20:58:38.583Z,22.93
2023-02-13T21:01:13.949Z,21.53
2023-02-13T21:03:42.173Z,20.53
2023-02-13T21:06:10.656Z,21.23
2023-02-13T21:08:38.625Z,22.00
2023-02-13T21:11:07.405Z,19.73
2023-02-13T21:13:35.603Z,20.47
2023-02-13T21:16:08.478Z,21.73
2023-02-13T21:18:37.921Z,21.87
2023-02-13T21:21:06.128Z,22.27
2023-02-13T21:23:34.271Z,21.30
2023-02-13T21:26:03.118Z,20.63
2023-02-13T21:28:31.076Z,20.90
2023-02-13T21:30:59.294Z,20.93
2023-02-13T21:33:27.474Z,21.37
2023-02-13T21:36:02.487Z,20.87
2023-02-13T21:38:30.383Z,20.47
2023-02-13T21:41:05.264Z,23.43
2023-02-13T21:43:37.563Z,24.83
2023-02-13T21:46:09.692Z,23.67
2023-02-13T21:48:37.694Z,27.83
2023-02-13T21:51:10.725Z,26.27
2023-02-13T21:53:38.732Z,25.73
2023-02-13T21:56:07.844Z,24.40
2023-02-13T21:58:35.844Z,24.23
2023-02-13T22:01:04.293Z,23.57
2023-02-13T22:03:32.224Z,24.40
2023-02-13T22:06:00.144Z,24.07
2023-02-13T22:08:29.459Z,25.80
2023-02-13T22:10:58.383Z,24.80
2023-02-13T22:13:26.677Z,26.10
2023-02-13T22:16:00.585Z,24.00
2023-02-13T22:18:28.515Z,24.87
2023-02-13T22:20:56.613Z,25.73
2023-02-13T22:23:24.595Z,26.83
2023-02-13T22:25:53.847Z,26.27
2023-02-13T22:28:21.702Z,26.57
2023-02-13T22:30:49.727Z,26.90
2023-02-13T22:33:17.638Z,27.43
2023-02-13T22:35:45.516Z,26.90
2023-02-13T22:38:13.417Z,25.07
2023-02-13T22:40:41.329Z,25.27
2023-02-13T22:43:10.560Z,24.97
2023-02-13T22:45:39.981Z,24.93
2023-02-13T22:48:07.868Z,25.40
2023-02-13T22:50:35.669Z,27.10
2023-02-13T22:53:03.553Z,25.87
2023-02-13T22:55:31.475Z,26.83
2023-02-13T22:57:59.307Z,25.83
2023-02-13T23:00:28.663Z,25.40
2023-02-13T23:02:56.530Z,24.93
2023-02-13T23:05:24.430Z,26.20
2023-02-13T23:07:52.302Z,27.13
2023-02-13T23:10:20.388Z,26.80
2023-02-13T23:12:47.253Z,27.77
2023-02-13T23:15:15.451Z,26.00
2023-02-13T23:18:02.224Z,26.80
2023-02-13T23:20:30.092Z,26.40
2023-02-13T23:22:58.059Z,28.27
2023-02-13T23:25:26.009Z,27.40
2023-02-13T23:27:56.724Z,26.93
2023-02-13T23:30:24.838Z,26.40
2023-02-13T23:32:54.138Z,30.20
2023-02-13T23:35:22.001Z,29.27
2023-02-13T23:37:49.847Z,31.67
2023-02-13T23:40:17.882Z,31.57
2023-02-13T23:42:45.777Z,32.00
2023-02-13T23:45:13.640Z,29.57
2023-02-13T23:47:41.572Z,29.53
2023-02-13T23:50:11.351Z,29.00
2023-02-13T23:52:39.261Z,29.60
2023-02-13T23:55:07.524Z,27.77
2023-02-13T23:57:35.575Z,29.30
